KBFIKSDL

Guest
Details From KBFI - Boeing Field King Co Intl
To KSDL - SCOTTSDALE
Flight Number -
Tags decoded
Created
Modified
Stats Distance 975 nm / 1,806 km
Max Altitude 0 ft / 0 m
Waypoints 3
Social Downloads 0
Likes 0
Share VATSIM

Download

Looking for another format? Having issues loading an existing format? Contact us
Advertisement - Login to hide

Notes

Requested: KBFI FLG DSERT SHOCK BUSTD KSDL Unmatched points: DSERT SHOCK BUSTD

Route

KBFI FLG KSDL

ID Type Via Altitude Latitude Longitude Leg Dist Tot Dist Heading (true) Name
O KBFI APT - 0 ft / 0 m 47.53110˚ -122.30251˚ - 0 nm - Boeing Field King Co Intl
FLG VOR - 0 ft / 0 m 35.14719˚ -111.67417˚ 882 nm 882 nm 144° / 151° FLAGSTAFF VOR-DME
O KSDL APT - 0 ft / 0 m 33.62288˚ -111.91053˚ 92 nm 975 nm 187° / 187° SCOTTSDALE

Altitude Profile

Advertisement - Login to hide

Weather


0- 5 10 15 20 25 30 35+ Temperature / ° C

Clouds and Precipitation
Forecast for 2017-12-12 00:00 UTC. Updated 2 hours ago

Ground ~20,000 ft ~40,000 ft Winds

KBFI

Details ICAO KBFI (BFI)
Name Boeing Field King Co Intl
Region United States
Timezone America/Los_Angeles (UTC-8.0)
Stats Elevation 20 ft / 6 m (AMSL)
Location 47.531101° -122.302515°
Runways 2
Magnetic Variation 15.704° E

METAR

KBFI 112253Z 25004KT 10SM CLR 09/00 A3038 RMK AO2 SLP286 T00940000

Decode

TAF

TAF AMD KBFI 111815Z 1118/1218 13003KT 6SM BR VCFG FEW001 SCT005 FM112000 16004KT P6SM SKC FM112100 16004KT P6SM SKC FM120400 15005KT P6SM BKN200 FM121100 15003KT P6SM BKN080

Decode

Departure Runways

ID Width Length Bearing (true) Bearing (mag) Surface Threshold Offset Overrun Length
13L 100 ft / 30 m 3,708 ft / 1,130 m 150.28° 134.58° Asphalt 240 ft / 73 m 0 ft / 0 m
13R 200 ft / 61 m 9,997 ft / 3,047 m 150.27° 134.57° Asphalt 0 ft / 0 m 896 ft / 273 m
31L 200 ft / 61 m 9,997 ft / 3,047 m 330.29° 314.59° Asphalt 879 ft / 268 m 151 ft / 46 m
31R 100 ft / 30 m 3,708 ft / 1,130 m 330.28° 314.58° Asphalt 364 ft / 111 m 0 ft / 0 m

KSDL

Details ICAO KSDL (ZSY)
Name SCOTTSDALE
Region United States
Timezone America/Phoenix (UTC-7.0)
Stats Elevation 1,510 ft / 460 m (AMSL)
Location 33.622881° -111.910535°
Runways 1
Magnetic Variation 10.314° E

METAR

KSDL 112253Z 00000KT 10SM CLR 24/M10 A3018 RMK AO2 SLP205 T02391100

Decode

TAF

TAF KSDL 111720Z 1118/1218 VRB05KT P6SM BKN250

Decode

Destination Runways

ID Width Length Bearing (true) Bearing (mag) Surface Threshold Offset Overrun Length
03 100 ft / 30 m 8,253 ft / 2,516 m 43.82° 33.51° Asphalt 740 ft / 226 m 0 ft / 0 m
21 100 ft / 30 m 8,253 ft / 2,516 m 223.83° 213.52° Asphalt 400 ft / 122 m 0 ft / 0 m

Popular Alternatives